sensor_id;sensor_type;location;lat;lon;timestamp;pressure;altitude;pressure_sealevel;temperature;humidity
49949;BME280;35840;45.982;8.890;2023-06-14T00:02:15;97880.47;;;18.82;89.58
49949;BME280;35840;45.982;8.890;2023-06-14T00:04:42;97879.19;;;18.86;90.03
49949;BME280;35840;45.982;8.890;2023-06-14T00:07:09;97876.56;;;18.86;89.90
49949;BME280;35840;45.982;8.890;2023-06-14T00:09:39;97866.63;;;18.81;88.86
49949;BME280;35840;45.982;8.890;2023-06-14T00:12:06;97873.44;;;18.82;89.00
49949;BME280;35840;45.982;8.890;2023-06-14T00:14:33;97870.19;;;18.80;89.36
49949;BME280;35840;45.982;8.890;2023-06-14T00:17:00;97871.38;;;18.86;89.35
49949;BME280;35840;45.982;8.890;2023-06-14T00:19:27;97862.63;;;18.87;89.32
49949;BME280;35840;45.982;8.890;2023-06-14T00:21:55;97865.63;;;18.82;89.20
49949;BME280;35840;45.982;8.890;2023-06-14T00:24:23;97870.69;;;18.84;89.55
49949;BME280;35840;45.982;8.890;2023-06-14T00:26:50;97870.44;;;18.87;88.91
49949;BME280;35840;45.982;8.890;2023-06-14T00:29:17;97864.69;;;18.83;89.06
49949;BME280;35840;45.982;8.890;2023-06-14T00:31:44;97866.03;;;18.87;88.97
49949;BME280;35840;45.982;8.890;2023-06-14T00:34:10;97858.63;;;18.74;89.05
49949;BME280;35840;45.982;8.890;2023-06-14T00:36:40;97865.59;;;18.74;88.19
49949;BME280;35840;45.982;8.890;2023-06-14T00:39:06;97863.16;;;18.72;88.84
49949;BME280;35840;45.982;8.890;2023-06-14T00:41:34;97856.66;;;18.76;89.24
49949;BME280;35840;45.982;8.890;2023-06-14T00:44:01;97844.63;;;18.75;89.87
49949;BME280;35840;45.982;8.890;2023-06-14T00:46:28;97842.50;;;18.71;89.27
49949;BME280;35840;45.982;8.890;2023-06-14T00:48:56;97839.88;;;18.71;90.08
49949;BME280;35840;45.982;8.890;2023-06-14T00:51:25;97846.09;;;18.70;90.23
49949;BME280;35840;45.982;8.890;2023-06-14T00:53:52;97846.56;;;18.73;90.13
49949;BME280;35840;45.982;8.890;2023-06-14T00:56:19;97847.84;;;18.69;89.78
49949;BME280;35840;45.982;8.890;2023-06-14T00:58:50;97846.22;;;18.68;90.26
49949;BME280;35840;45.982;8.890;2023-06-14T01:01:17;97846.38;;;18.67;90.06
49949;BME280;35840;45.982;8.890;2023-06-14T01:03:44;97836.28;;;18.64;90.41
49949;BME280;35840;45.982;8.890;2023-06-14T01:06:27;97841.69;;;18.70;88.88
49949;BME280;35840;45.982;8.890;2023-06-14T01:09:15;97839.56;;;18.66;89.67
49949;BME280;35840;45.982;8.890;2023-06-14T01:11:59;97842.16;;;18.66;90.15
49949;BME280;35840;45.982;8.890;2023-06-14T01:14:30;97850.13;;;18.64;90.15
49949;BME280;35840;45.982;8.890;2023-06-14T01:16:58;97855.97;;;18.66;89.70
49949;BME280;35840;45.982;8.890;2023-06-14T01:19:27;97847.22;;;18.67;88.33
49949;BME280;35840;45.982;8.890;2023-06-14T01:21:59;97851.41;;;18.60;89.17
49949;BME280;35840;45.982;8.890;2023-06-14T01:24:27;97854.31;;;18.57;89.27
49949;BME280;35840;45.982;8.890;2023-06-14T01:26:59;97844.69;;;18.49;88.86
49949;BME280;35840;45.982;8.890;2023-06-14T01:29:27;97859.84;;;18.54;89.76
49949;BME280;35840;45.982;8.890;2023-06-14T01:32:00;97854.03;;;18.60;88.31
49949;BME280;35840;45.982;8.890;2023-06-14T01:34:30;97859.50;;;18.57;88.70
49949;BME280;35840;45.982;8.890;2023-06-14T01:36:57;97858.56;;;18.58;88.45
49949;BME280;35840;45.982;8.890;2023-06-14T01:39:26;97849.72;;;18.51;89.10
49949;BME280;35840;45.982;8.890;2023-06-14T01:41:54;97860.16;;;18.51;90.63
49949;BME280;35840;45.982;8.890;2023-06-14T01:44:22;97860.31;;;18.49;91.05
49949;BME280;35840;45.982;8.890;2023-06-14T01:46:50;97856.91;;;18.49;90.99
49949;BME280;35840;45.982;8.890;2023-06-14T01:49:17;97853.31;;;18.50;91.02
49949;BME280;35840;45.982;8.890;2023-06-14T01:51:44;97854.59;;;18.46;90.15
49949;BME280;35840;45.982;8.890;2023-06-14T01:54:11;97850.25;;;18.54;90.43
49949;BME280;35840;45.982;8.890;2023-06-14T01:56:37;97853.03;;;18.61;90.38
49949;BME280;35840;45.982;8.890;2023-06-14T01:59:05;97849.97;;;18.66;91.17
49949;BME280;35840;45.982;8.890;2023-06-14T02:01:32;97847.84;;;18.69;90.95
49949;BME280;35840;45.982;8.890;2023-06-14T02:04:01;97851.59;;;18.67;91.08
49949;BME280;35840;45.982;8.890;2023-06-14T02:06:28;97855.97;;;18.66;90.88
49949;BME280;35840;45.982;8.890;2023-06-14T02:08:55;97853.84;;;18.62;90.24
49949;BME280;35840;45.982;8.890;2023-06-14T02:11:21;97856.16;;;18.65;90.15
49949;BME280;35840;45.982;8.890;2023-06-14T02:13:49;97853.06;;;18.69;89.38
49949;BME280;35840;45.982;8.890;2023-06-14T02:16:17;97852.88;;;18.63;90.45
49949;BME280;35840;45.982;8.890;2023-06-14T02:18:44;97850.56;;;18.59;90.73
49949;BME280;35840;45.982;8.890;2023-06-14T02:21:11;97855.16;;;18.57;91.06
49949;BME280;35840;45.982;8.890;2023-06-14T02:23:37;97852.84;;;18.54;91.13
49949;BME280;35840;45.982;8.890;2023-06-14T02:26:04;97857.53;;;18.51;91.52
49949;BME280;35840;45.982;8.890;2023-06-14T02:28:33;97848.78;;;18.52;91.13
49949;BME280;35840;45.982;8.890;2023-06-14T02:31:02;97844.38;;;18.52;91.07
49949;BME280;35840;45.982;8.890;2023-06-14T02:33:28;97851.81;;;18.39;91.43
49949;BME280;35840;45.982;8.890;2023-06-14T02:35:55;97847.47;;;18.21;91.90
49949;BME280;35840;45.982;8.890;2023-06-14T02:38:22;97849.63;;;18.00;93.22
49949;BME280;35840;45.982;8.890;2023-06-14T02:40:49;97850.88;;;17.96;93.62
49949;BME280;35840;45.982;8.890;2023-06-14T02:43:16;97829.75;;;17.91;93.89
49949;BME280;35840;45.982;8.890;2023-06-14T02:45:44;97843.94;;;18.04;93.36
49949;BME280;35840;45.982;8.890;2023-06-14T02:48:11;97844.16;;;18.11;94.29
49949;BME280;35840;45.982;8.890;2023-06-14T02:50:40;97843.03;;;18.14;94.67
49949;BME280;35840;45.982;8.890;2023-06-14T02:53:06;97843.75;;;18.24;93.90
49949;BME280;35840;45.982;8.890;2023-06-14T02:55:33;97830.28;;;18.02;93.42
49949;BME280;35840;45.982;8.890;2023-06-14T02:58:06;97831.19;;;17.93;93.67
49949;BME280;35840;45.982;8.890;2023-06-14T03:00:33;97843.66;;;18.08;93.57
49949;BME280;35840;45.982;8.890;2023-06-14T03:03:01;97831.50;;;18.16;94.21
49949;BME280;35840;45.982;8.890;2023-06-14T03:05:29;97832.78;;;18.12;94.40
49949;BME280;35840;45.982;8.890;2023-06-14T03:07:56;97831.19;;;18.19;94.46
49949;BME280;35840;45.982;8.890;2023-06-14T03:10:23;97814.09;;;18.17;93.00
49949;BME280;35840;45.982;8.890;2023-06-14T03:12:51;97825.38;;;18.26;94.37
49949;BME280;35840;45.982;8.890;2023-06-14T03:15:20;97826.22;;;18.26;93.89
49949;BME280;35840;45.982;8.890;2023-06-14T03:17:51;97830.41;;;18.27;93.40
49949;BME280;35840;45.982;8.890;2023-06-14T03:20:20;97830.41;;;18.27;94.57
49949;BME280;35840;45.982;8.890;2023-06-14T03:22:47;97823.91;;;18.23;94.30
49949;BME280;35840;45.982;8.890;2023-06-14T03:25:15;97825.53;;;18.24;94.20
49949;BME280;35840;45.982;8.890;2023-06-14T03:27:44;97809.91;;;18.24;93.79
49949;BME280;35840;45.982;8.890;2023-06-14T03:30:11;97818.41;;;18.26;94.01
49949;BME280;35840;45.982;8.890;2023-06-14T03:32:39;97815.13;;;18.24;94.43
49949;BME280;35840;45.982;8.890;2023-06-14T03:35:07;97808.75;;;18.18;94.85
49949;BME280;35840;45.982;8.890;2023-06-14T03:37:34;97816.28;;;18.30;94.49
49949;BME280;35840;45.982;8.890;2023-06-14T03:40:01;97811.09;;;18.30;94.08
49949;BME280;35840;45.982;8.890;2023-06-14T03:42:32;97816.13;;;18.31;94.01
49949;BME280;35840;45.982;8.890;2023-06-14T03:44:59;97816.97;;;18.32;94.23
49949;BME280;35840;45.982;8.890;2023-06-14T03:47:26;97809.59;;;18.27;93.94
49949;BME280;35840;45.982;8.890;2023-06-14T03:49:55;97824.94;;;18.30;93.87
49949;BME280;35840;45.982;8.890;2023-06-14T03:52:21;97820.22;;;18.34;93.90
49949;BME280;35840;45.982;8.890;2023-06-14T03:54:51;97803.44;;;18.28;93.92
49949;BME280;35840;45.982;8.890;2023-06-14T03:57:23;97811.28;;;18.36;94.16
49949;BME280;35840;45.982;8.890;2023-06-14T03:59:50;97815.69;;;18.36;94.19
49949;BME280;35840;45.982;8.890;2023-06-14T04:02:17;97820.22;;;18.34;93.80
49949;BME280;35840;45.982;8.890;2023-06-14T04:04:45;97823.78;;;18.33;93.28
49949;BME280;35840;45.982;8.890;2023-06-14T04:07:12;97819.56;;;18.32;93.35
49949;BME280;35840;45.982;8.890;2023-06-14T04:09:40;97832.41;;;18.33;94.13
49949;BME280;35840;45.982;8.890;2023-06-14T04:12:07;97828.69;;;18.36;94.59
49949;BME280;35840;45.982;8.890;2023-06-14T04:14:43;97833.22;;;18.34;94.44
49949;BME280;35840;45.982;8.890;2023-06-14T04:17:11;97829.50;;;18.36;93.24
49949;BME280;35840;45.982;8.890;2023-06-14T04:19:40;97826.38;;;18.24;93.76
49949;BME280;35840;45.982;8.890;2023-06-14T04:22:07;97841.81;;;18.26;94.03
49949;BME280;35840;45.982;8.890;2023-06-14T04:24:35;97837.63;;;18.33;93.49
49949;BME280;35840;45.982;8.890;2023-06-14T04:27:03;97846.72;;;18.29;93.12
49949;BME280;35840;45.982;8.890;2023-06-14T04:29:31;97842.81;;;18.33;94.98
49949;BME280;35840;45.982;8.890;2023-06-14T04:32:02;97844.16;;;18.37;94.44
49949;BME280;35840;45.982;8.890;2023-06-14T04:34:29;97847.41;;;18.39;93.97
49949;BME280;35840;45.982;8.890;2023-06-14T04:37:02;97850.84;;;18.40;92.48
49949;BME280;35840;45.982;8.890;2023-06-14T04:39:32;97846.75;;;18.37;93.01
49949;BME280;35840;45.982;8.890;2023-06-14T04:42:00;97854.25;;;18.40;93.55
49949;BME280;35840;45.982;8.890;2023-06-14T04:44:30;97835.50;;;18.29;94.48
49949;BME280;35840;45.982;8.890;2023-06-14T04:47:01;97848.19;;;18.32;95.35
49949;BME280;35840;45.982;8.890;2023-06-14T04:49:27;97850.47;;;18.35;95.98
49949;BME280;35840;45.982;8.890;2023-06-14T04:51:57;97839.38;;;18.33;95.88
49949;BME280;35840;45.982;8.890;2023-06-14T04:54:30;97845.75;;;18.38;96.17
49949;BME280;35840;45.982;8.890;2023-06-14T04:57:01;97850.84;;;18.40;96.35
49949;BME280;35840;45.982;8.890;2023-06-14T04:59:29;97846.44;;;18.40;96.54
49949;BME280;35840;45.982;8.890;2023-06-14T05:02:00;97845.47;;;18.41;96.17
49949;BME280;35840;45.982;8.890;2023-06-14T05:04:27;97850.84;;;18.48;96.38
49949;BME280;35840;45.982;8.890;2023-06-14T05:06:56;97851.16;;;18.45;96.63
49949;BME280;35840;45.982;8.890;2023-06-14T05:09:24;97848.41;;;18.47;96.64
49949;BME280;35840;45.982;8.890;2023-06-14T05:11:51;97850.84;;;18.48;96.46
49949;BME280;35840;45.982;8.890;2023-06-14T05:14:17;97852.50;;;18.49;96.06
49949;BME280;35840;45.982;8.890;2023-06-14T05:16:45;97854.13;;;18.50;95.99
49949;BME280;35840;45.982;8.890;2023-06-14T05:19:12;97860.16;;;18.51;96.28
49949;BME280;35840;45.982;8.890;2023-06-14T05:21:39;97849.09;;;18.49;95.92
49949;BME280;35840;45.982;8.890;2023-06-14T05:24:09;97858.34;;;18.51;95.89
49949;BME280;35840;45.982;8.890;2023-06-14T05:26:36;97861.94;;;18.50;96.06
49949;BME280;35840;45.982;8.890;2023-06-14T05:29:03;97855.09;;;18.49;95.82
49949;BME280;35840;45.982;8.890;2023-06-14T05:31:30;97862.53;;;18.44;95.46
49949;BME280;35840;45.982;8.890;2023-06-14T05:33:57;97863.06;;;18.48;95.64
49949;BME280;35840;45.982;8.890;2023-06-14T05:36:24;97863.72;;;18.50;95.55
49949;BME280;35840;45.982;8.890;2023-06-14T05:38:51;97868.13;;;18.49;95.51
49949;BME280;35840;45.982;8.890;2023-06-14T05:41:27;97861.44;;;18.47;95.46
49949;BME280;35840;45.982;8.890;2023-06-14T05:43:55;97851.13;;;18.37;96.50
49949;BME280;35840;45.982;8.890;2023-06-14T05:46:23;97857.66;;;18.41;96.49
49949;BME280;35840;45.982;8.890;2023-06-14T05:48:52;97856.34;;;18.37;97.00
49949;BME280;35840;45.982;8.890;2023-06-14T05:51:19;97865.72;;;18.30;96.49
49949;BME280;35840;45.982;8.890;2023-06-14T05:53:47;97866.56;;;18.30;96.19
49949;BME280;35840;45.982;8.890;2023-06-14T05:56:15;97858.06;;;18.28;96.56
49949;BME280;35840;45.982;8.890;2023-06-14T05:58:42;97870.97;;;18.38;96.89
49949;BME280;35840;45.982;8.890;2023-06-14T06:01:09;97878.78;;;18.38;97.22
49949;BME280;35840;45.982;8.890;2023-06-14T06:03:35;97868.84;;;18.33;96.78
49949;BME280;35840;45.982;8.890;2023-06-14T06:06:02;97867.69;;;18.28;95.70
49949;BME280;35840;45.982;8.890;2023-06-14T06:08:29;97883.34;;;18.36;95.61
49949;BME280;35840;45.982;8.890;2023-06-14T06:10:56;97880.75;;;18.36;96.61
49949;BME280;35840;45.982;8.890;2023-06-14T06:13:23;97882.88;;;18.40;95.48
49949;BME280;35840;45.982;8.890;2023-06-14T06:15:50;97883.25;;;18.46;95.89
49949;BME280;35840;45.982;8.890;2023-06-14T06:18:17;97883.56;;;18.51;95.76
49949;BME280;35840;45.982;8.890;2023-06-14T06:20:44;97878.56;;;18.57;94.11
49949;BME280;35840;45.982;8.890;2023-06-14T06:23:13;97885.44;;;18.67;nan
49949;BME280;35840;45.982;8.890;2023-06-14T06:25:39;97884.00;;;18.72;96.04
49949;BME280;35840;45.982;8.890;2023-06-14T06:28:06;97881.75;;;18.78;95.90
49949;BME280;35840;45.982;8.890;2023-06-14T06:30:33;97878.03;;;18.80;95.93
49949;BME280;35840;45.982;8.890;2023-06-14T06:33:00;97879.06;;;18.87;95.87
49949;BME280;35840;45.982;8.890;2023-06-14T06:35:27;97883.81;;;19.00;96.61
49949;BME280;35840;45.982;8.890;2023-06-14T06:37:54;97883.66;;;19.02;94.67
49949;BME280;35840;45.982;8.890;2023-06-14T06:40:22;97890.97;;;19.06;92.78
49949;BME280;35840;45.982;8.890;2023-06-14T06:42:48;97894.59;;;19.05;92.81
49949;BME280;35840;45.982;8.890;2023-06-14T06:45:18;97901.88;;;19.02;93.26
49949;BME280;35840;45.982;8.890;2023-06-14T06:47:45;97894.22;;;19.00;94.81
49949;BME280;35840;45.982;8.890;2023-06-14T06:50:11;97899.91;;;18.96;94.68
49949;BME280;35840;45.982;8.890;2023-06-14T06:52:38;97899.75;;;18.97;95.32
49949;BME280;35840;45.982;8.890;2023-06-14T06:55:05;97906.91;;;18.95;96.26
49949;BME280;35840;45.982;8.890;2023-06-14T06:57:32;97903.81;;;18.91;96.50
49949;BME280;35840;45.982;8.890;2023-06-14T06:59:59;97909.97;;;18.90;95.97
49949;BME280;35840;45.982;8.890;2023-06-14T07:02:26;97897.56;;;18.84;95.45
49949;BME280;35840;45.982;8.890;2023-06-14T07:04:52;97912.38;;;18.84;94.67
49949;BME280;35840;45.982;8.890;2023-06-14T07:07:19;97920.00;;;18.85;94.26
49949;BME280;35840;45.982;8.890;2023-06-14T07:09:46;97921.53;;;18.88;94.02
49949;BME280;35840;45.982;8.890;2023-06-14T07:12:13;97906.34;;;18.83;93.88
49949;BME280;35840;45.982;8.890;2023-06-14T07:14:40;97924.13;;;18.88;95.37
49949;BME280;35840;45.982;8.890;2023-06-14T07:17:06;97919.94;;;18.95;97.24
49949;BME280;35840;45.982;8.890;2023-06-14T07:19:35;97915.38;;;18.97;95.71
49949;BME280;35840;45.982;8.890;2023-06-14T07:22:02;97923.22;;;18.97;94.05
49949;BME280;35840;45.982;8.890;2023-06-14T07:24:29;97920.59;;;18.97;94.11
49949;BME280;35840;45.982;8.890;2023-06-14T07:26:56;97924.84;;;19.06;95.54
49949;BME280;35840;45.982;8.890;2023-06-14T07:29:23;97932.50;;;19.08;93.91
49949;BME280;35840;45.982;8.890;2023-06-14T07:31:49;97933.81;;;19.12;93.19
49949;BME280;35840;45.982;8.890;2023-06-14T07:34:16;97930.41;;;19.12;93.75
49949;BME280;35840;45.982;8.890;2023-06-14T07:36:43;97931.41;;;19.19;93.66
49949;BME280;35840;45.982;8.890;2023-06-14T07:39:11;97928.00;;;19.18;93.76
49949;BME280;35840;45.982;8.890;2023-06-14T07:41:38;97932.91;;;19.21;93.47
49949;BME280;35840;45.982;8.890;2023-06-14T07:44:05;97935.53;;;19.30;93.36
49949;BME280;35840;45.982;8.890;2023-06-14T07:46:32;97935.03;;;19.34;93.65
49949;BME280;35840;45.982;8.890;2023-06-14T07:49:01;97924.47;;;19.44;93.31
49949;BME280;35840;45.982;8.890;2023-06-14T07:51:28;97925.31;;;19.53;92.13
49949;BME280;35840;45.982;8.890;2023-06-14T07:53:54;97924.19;;;19.64;91.71
49949;BME280;35840;45.982;8.890;2023-06-14T07:56:22;97925.16;;;19.71;90.79
49949;BME280;35840;45.982;8.890;2023-06-14T07:58:49;97922.75;;;19.77;92.06
49949;BME280;35840;45.982;8.890;2023-06-14T08:01:16;97919.28;;;19.77;89.46
49949;BME280;35840;45.982;8.890;2023-06-14T08:05:40;97922.22;;;19.66;89.42
49949;BME280;35840;45.982;8.890;2023-06-14T08:08:06;97918.31;;;19.78;90.67
49949;BME280;35840;45.982;8.890;2023-06-14T08:10:33;97921.13;;;19.93;88.22
49949;BME280;35840;45.982;8.890;2023-06-14T08:13:00;97907.44;;;19.91;88.64
49949;BME280;35840;45.982;8.890;2023-06-14T08:15:27;97926.19;;;20.11;88.90
49949;BME280;35840;45.982;8.890;2023-06-14T08:17:54;97922.25;;;20.07;88.38
49949;BME280;35840;45.982;8.890;2023-06-14T08:20:21;97916.53;;;20.11;87.45
49949;BME280;35840;45.982;8.890;2023-06-14T08:22:47;97914.72;;;20.28;86.38
49949;BME280;35840;45.982;8.890;2023-06-14T08:25:15;97912.94;;;20.29;78.07
49949;BME280;35840;45.982;8.890;2023-06-14T08:27:42;97909.50;;;20.28;80.48
49949;BME280;35840;45.982;8.890;2023-06-14T08:30:09;97918.97;;;20.38;82.98
49949;BME280;35840;45.982;8.890;2023-06-14T08:32:36;97915.84;;;20.51;83.13
49949;BME280;35840;45.982;8.890;2023-06-14T08:35:04;97923.81;;;20.57;78.81
49949;BME280;35840;45.982;8.890;2023-06-14T08:37:32;97914.50;;;20.63;79.10
49949;BME280;35840;45.982;8.890;2023-06-14T08:40:00;97924.78;;;20.73;79.35
49949;BME280;35840;45.982;8.890;2023-06-14T08:42:28;97924.91;;;20.79;79.77
49949;BME280;35840;45.982;8.890;2023-06-14T08:44:58;97928.34;;;20.80;78.01
49949;BME280;35840;45.982;8.890;2023-06-14T08:47:26;97925.72;;;20.88;80.11
49949;BME280;35840;45.982;8.890;2023-06-14T08:49:54;97920.34;;;20.81;71.45
49949;BME280;35840;45.982;8.890;2023-06-14T08:52:26;97921.28;;;20.89;78.58
49949;BME280;35840;45.982;8.890;2023-06-14T08:54:56;97916.88;;;20.89;77.95
49949;BME280;35840;45.982;8.890;2023-06-14T08:57:24;97918.47;;;20.98;77.90
49949;BME280;35840;45.982;8.890;2023-06-14T08:59:52;97923.50;;;21.08;74.15
49949;BME280;35840;45.982;8.890;2023-06-14T09:02:20;97929.72;;;21.07;75.15
49949;BME280;35840;45.982;8.890;2023-06-14T09:04:49;97934.97;;;20.99;71.42
49949;BME280;35840;45.982;8.890;2023-06-14T09:07:18;97926.72;;;20.79;68.89
49949;BME280;35840;45.982;8.890;2023-06-14T09:09:45;97928.53;;;20.70;72.14
49949;BME280;35840;45.982;8.890;2023-06-14T09:12:32;97924.59;;;20.83;75.33
49949;BME280;35840;45.982;8.890;2023-06-14T09:14:58;97924.06;;;20.95;70.26
49949;BME280;35840;45.982;8.890;2023-06-14T09:17:26;97929.41;;;21.02;69.94
49949;BME280;35840;45.982;8.890;2023-06-14T09:19:55;97928.84;;;21.15;71.46
49949;BME280;35840;45.982;8.890;2023-06-14T09:22:22;97922.59;;;21.24;70.24
49949;BME280;35840;45.982;8.890;2023-06-14T09:24:49;97920.16;;;21.23;68.09
49949;BME280;35840;45.982;8.890;2023-06-14T09:27:16;97922.03;;;21.37;72.12
49949;BME280;35840;45.982;8.890;2023-06-14T09:29:43;97921.97;;;21.54;73.81
49949;BME280;35840;45.982;8.890;2023-06-14T09:32:10;97923.47;;;21.71;70.23
49949;BME280;35840;45.982;8.890;2023-06-14T09:34:37;97920.44;;;21.82;70.34
49949;BME280;35840;45.982;8.890;2023-06-14T09:37:04;97930.84;;;21.91;67.89
49949;BME280;35840;45.982;8.890;2023-06-14T09:39:31;97928.88;;;21.93;67.14
49949;BME280;35840;45.982;8.890;2023-06-14T09:41:57;97926.78;;;21.88;65.64
49949;BME280;35840;45.982;8.890;2023-06-14T09:44:25;97927.75;;;21.87;67.46
49949;BME280;35840;45.982;8.890;2023-06-14T09:46:55;97933.34;;;21.84;65.25
49949;BME280;35840;45.982;8.890;2023-06-14T09:49:22;97926.22;;;21.78;64.00
49949;BME280;35840;45.982;8.890;2023-06-14T09:51:52;97927.59;;;21.89;66.66
49949;BME280;35840;45.982;8.890;2023-06-14T09:54:22;97923.38;;;22.02;68.47
49949;BME280;35840;45.982;8.890;2023-06-14T09:56:51;97925.66;;;22.06;61.94
49949;BME280;35840;45.982;8.890;2023-06-14T09:59:23;97923.31;;;22.11;65.85
49949;BME280;35840;45.982;8.890;2023-06-14T10:01:58;97921.88;;;22.08;63.99
49949;BME280;35840;45.982;8.890;2023-06-14T10:04:29;97923.03;;;22.06;63.72
49949;BME280;35840;45.982;8.890;2023-06-14T10:06:57;97920.69;;;22.11;66.14
49949;BME280;35840;45.982;8.890;2023-06-14T10:09:25;97913.06;;;22.24;66.60
49949;BME280;35840;45.982;8.890;2023-06-14T10:11:55;97919.41;;;22.30;67.01
49949;BME280;35840;45.982;8.890;2023-06-14T10:14:22;97912.66;;;22.35;67.07
49949;BME280;35840;45.982;8.890;2023-06-14T10:17:26;97915.81;;;22.46;67.47
49949;BME280;35840;45.982;8.890;2023-06-14T10:19:58;97920.16;;;22.53;66.14
49949;BME280;35840;45.982;8.890;2023-06-14T10:22:40;97922.06;;;22.60;63.50
49949;BME280;35840;45.982;8.890;2023-06-14T10:25:13;97913.38;;;22.59;64.80
49949;BME280;35840;45.982;8.890;2023-06-14T10:27:44;97914.53;;;22.57;62.16
49949;BME280;35840;45.982;8.890;2023-06-14T10:30:14;97906.34;;;22.45;60.64
49949;BME280;35840;45.982;8.890;2023-06-14T10:33:07;97919.16;;;22.55;62.22
49949;BME280;35840;45.982;8.890;2023-06-14T10:35:34;97904.16;;;22.63;68.62
49949;BME280;35840;45.982;8.890;2023-06-14T10:38:09;97890.41;;;22.76;70.75
49949;BME280;35840;45.982;8.890;2023-06-14T10:40:36;97896.03;;;22.88;63.29
49949;BME280;35840;45.982;8.890;2023-06-14T10:43:21;97905.16;;;22.77;65.62
49949;BME280;35840;45.982;8.890;2023-06-14T10:48:43;97896.31;;;22.63;61.83
49949;BME280;35840;45.982;8.890;2023-06-14T10:51:20;97890.25;;;22.63;61.27
49949;BME280;35840;45.982;8.890;2023-06-14T10:53:50;97889.25;;;22.64;60.94
49949;BME280;35840;45.982;8.890;2023-06-14T10:58:57;97893.59;;;22.72;59.79
49949;BME280;35840;45.982;8.890;2023-06-14T11:01:40;97878.31;;;22.75;66.93
49949;BME280;35840;45.982;8.890;2023-06-14T11:04:10;97890.84;;;22.95;64.44
49949;BME280;35840;45.982;8.890;2023-06-14T11:06:48;97879.19;;;23.12;65.79
49949;BME280;35840;45.982;8.890;2023-06-14T11:12:10;97884.38;;;23.27;66.01
49949;BME280;35840;45.982;8.890;2023-06-14T11:14:38;97870.28;;;23.28;66.24
49949;BME280;35840;45.982;8.890;2023-06-14T11:17:06;97869.50;;;23.34;66.13
49949;BME280;35840;45.982;8.890;2023-06-14T11:19:33;97864.72;;;23.38;64.65
49949;BME280;35840;45.982;8.890;2023-06-14T11:21:59;97867.34;;;23.38;61.18
49949;BME280;35840;45.982;8.890;2023-06-14T11:24:26;97867.56;;;23.43;61.55
49949;BME280;35840;45.982;8.890;2023-06-14T11:26:55;97867.84;;;23.48;62.77
49949;BME280;35840;45.982;8.890;2023-06-14T11:29:23;97861.41;;;23.51;62.51
49949;BME280;35840;45.982;8.890;2023-06-14T11:31:50;97866.22;;;23.69;61.31
49949;BME280;35840;45.982;8.890;2023-06-14T11:34:17;97856.19;;;23.79;62.94
49949;BME280;35840;45.982;8.890;2023-06-14T11:36:45;97862.44;;;23.78;61.31
49949;BME280;35840;45.982;8.890;2023-06-14T11:39:12;97856.81;;;23.81;62.72
49949;BME280;35840;45.982;8.890;2023-06-14T11:41:44;97854.25;;;23.88;61.24
49949;BME280;35840;45.982;8.890;2023-06-14T11:44:11;97849.63;;;23.90;63.60
49949;BME280;35840;45.982;8.890;2023-06-14T11:46:38;97857.13;;;23.93;62.90
49949;BME280;35840;45.982;8.890;2023-06-14T11:49:06;97848.69;;;23.98;59.91
49949;BME280;35840;45.982;8.890;2023-06-14T11:51:34;97844.41;;;23.97;62.08
49949;BME280;35840;45.982;8.890;2023-06-14T11:54:03;97847.69;;;23.99;62.21
49949;BME280;35840;45.982;8.890;2023-06-14T11:56:31;97841.84;;;24.03;63.40
49949;BME280;35840;45.982;8.890;2023-06-14T11:58:59;97845.25;;;23.97;59.99
49949;BME280;35840;45.982;8.890;2023-06-14T12:01:27;97843.22;;;23.99;59.09
49949;BME280;35840;45.982;8.890;2023-06-14T12:03:54;97849.75;;;23.82;56.84
49949;BME280;35840;45.982;8.890;2023-06-14T12:06:28;97843.66;;;23.75;59.89
49949;BME280;35840;45.982;8.890;2023-06-14T12:09:02;97847.69;;;23.77;61.07
49949;BME280;35840;45.982;8.890;2023-06-14T12:11:33;97835.31;;;23.93;61.47
49949;BME280;35840;45.982;8.890;2023-06-14T12:14:00;97838.97;;;23.98;62.22
49949;BME280;35840;45.982;8.890;2023-06-14T12:16:33;97832.47;;;24.22;62.62
49949;BME280;35840;45.982;8.890;2023-06-14T12:19:12;97836.47;;;24.18;61.67
49949;BME280;35840;45.982;8.890;2023-06-14T12:21:39;97829.53;;;24.04;60.52
49949;BME280;35840;45.982;8.890;2023-06-14T12:24:07;97828.63;;;23.90;59.09
49949;BME280;35840;45.982;8.890;2023-06-14T12:26:37;97835.38;;;23.78;61.37
49949;BME280;35840;45.982;8.890;2023-06-14T12:29:05;97834.28;;;23.65;59.88
49949;BME280;35840;45.982;8.890;2023-06-14T12:31:33;97822.84;;;23.73;61.45
49949;BME280;35840;45.982;8.890;2023-06-14T12:34:00;97820.69;;;23.83;61.77
49949;BME280;35840;45.982;8.890;2023-06-14T12:36:27;97810.53;;;24.02;61.94
49949;BME280;35840;45.982;8.890;2023-06-14T12:38:55;97814.00;;;24.09;56.07
49949;BME280;35840;45.982;8.890;2023-06-14T12:41:22;97819.56;;;23.93;59.08
49949;BME280;35840;45.982;8.890;2023-06-14T12:43:49;97819.81;;;23.76;58.50
49949;BME280;35840;45.982;8.890;2023-06-14T12:46:16;97820.19;;;23.95;60.40
49949;BME280;35840;45.982;8.890;2023-06-14T12:48:43;97820.69;;;24.12;61.15
49949;BME280;35840;45.982;8.890;2023-06-14T12:51:10;97822.78;;;24.23;60.48
49949;BME280;35840;45.982;8.890;2023-06-14T12:53:37;97818.75;;;24.27;59.74
49949;BME280;35840;45.982;8.890;2023-06-14T12:56:04;97817.78;;;24.35;61.08
49949;BME280;35840;45.982;8.890;2023-06-14T12:58:30;97809.94;;;24.41;60.54
49949;BME280;35840;45.982;8.890;2023-06-14T13:00:57;97826.09;;;24.38;58.64
49949;BME280;35840;45.982;8.890;2023-06-14T13:03:24;97817.44;;;24.45;60.85
49949;BME280;35840;45.982;8.890;2023-06-14T13:05:51;97821.13;;;24.57;58.20
49949;BME280;35840;45.982;8.890;2023-06-14T13:08:18;97819.06;;;24.52;58.81
49949;BME280;35840;45.982;8.890;2023-06-14T13:10:50;97816.00;;;24.42;53.90
49949;BME280;35840;45.982;8.890;2023-06-14T13:13:17;97816.22;;;24.47;60.39
49949;BME280;35840;45.982;8.890;2023-06-14T13:15:44;97822.56;;;24.60;59.93
49949;BME280;35840;45.982;8.890;2023-06-14T13:18:12;97823.63;;;24.65;57.11